createdAt,value
2017-01-08T00:02:17.171Z,100.000
2017-01-08T00:05:12.442Z,100.000
2017-01-08T00:08:04.132Z,100.000
2017-01-08T00:10:59.176Z,100.000
2017-01-08T00:13:50.944Z,100.000
2017-01-08T00:16:46.099Z,99.964
2017-01-08T00:19:40.827Z,100.000
2017-01-08T00:22:34.316Z,100.000
2017-01-08T00:25:25.049Z,100.000
2017-01-08T00:28:20.339Z,100.000
2017-01-08T00:31:13.149Z,100.000
2017-01-08T00:34:08.268Z,100.000
2017-01-08T00:37:00.722Z,100.000
2017-01-08T00:39:54.141Z,100.000
2017-01-08T00:42:45.973Z,100.000
2017-01-08T00:45:40.538Z,100.000
2017-01-08T00:48:35.599Z,100.000
2017-01-08T00:51:29.050Z,100.000
2017-01-08T00:54:21.568Z,100.000
2017-01-08T00:57:15.868Z,100.000
2017-01-08T01:00:06.576Z,100.000
2017-01-08T01:03:00.042Z,100.000
2017-01-08T01:08:48.774Z,100.000
2017-01-08T01:11:42.258Z,100.000
2017-01-08T01:14:34.087Z,100.000
2017-01-08T01:17:27.476Z,100.000
2017-01-08T01:20:20.934Z,100.000
2017-01-08T01:23:16.075Z,100.000
2017-01-08T01:26:09.501Z,100.000
2017-01-08T01:29:02.960Z,100.000
2017-01-08T01:31:54.749Z,100.000
2017-01-08T01:34:48.168Z,100.000
2017-01-08T01:37:41.555Z,100.000
2017-01-08T01:40:35.159Z,100.000
2017-01-08T01:43:31.179Z,100.000
2017-01-08T01:46:21.964Z,100.000
2017-01-08T01:49:15.491Z,100.000
2017-01-08T01:52:09.427Z,100.000
2017-01-08T01:55:04.496Z,100.000
2017-01-08T01:57:57.924Z,100.000
2017-01-08T02:00:51.284Z,100.000
2017-01-08T02:03:44.150Z,100.000
2017-01-08T02:06:38.290Z,100.000
2017-01-08T02:09:31.893Z,100.000
2017-01-08T02:12:23.786Z,100.000
2017-01-08T02:15:17.390Z,100.000
2017-01-08T02:18:10.873Z,100.000
2017-01-08T02:21:04.319Z,100.000
2017-01-08T02:23:57.803Z,100.000
2017-01-08T02:26:53.112Z,100.000
2017-01-08T02:29:46.679Z,100.000
2017-01-08T02:32:38.395Z,100.000
2017-01-08T02:35:31.859Z,100.000
2017-01-08T02:38:25.385Z,100.000
2017-01-08T02:41:19.318Z,100.000
2017-01-08T02:44:15.480Z,100.000
2017-01-08T02:47:06.268Z,100.000
2017-01-08T02:50:00.070Z,100.000
2017-01-08T02:52:55.398Z,100.000
2017-01-08T02:55:48.698Z,100.000
2017-01-08T02:58:42.255Z,100.000
2017-01-08T03:01:34.236Z,100.000
2017-01-08T03:04:27.652Z,100.000
2017-01-08T03:07:23.039Z,100.000
2017-01-08T03:10:16.421Z,100.000
2017-01-08T03:13:08.276Z,100.000
2017-01-08T03:16:03.586Z,100.000
2017-01-08T03:18:55.292Z,100.000
2017-01-08T03:21:50.441Z,100.000
2017-01-08T03:24:43.872Z,100.000
2017-01-08T03:27:37.441Z,100.000
2017-01-08T03:30:30.980Z,100.000
2017-01-08T03:33:23.656Z,100.000
2017-01-08T03:36:16.121Z,100.000
2017-01-08T03:39:10.695Z,100.000
2017-01-08T03:42:05.061Z,100.000
2017-01-08T03:44:56.937Z,100.000
2017-01-08T03:47:53.069Z,100.000
2017-01-08T03:50:44.496Z,100.000
2017-01-08T03:53:39.038Z,100.000
2017-01-08T03:56:30.741Z,100.000
2017-01-08T03:59:24.137Z,100.000
2017-01-08T04:02:17.670Z,100.000
2017-01-08T04:05:11.167Z,100.000
2017-01-08T04:08:06.354Z,100.000
2017-01-08T04:10:58.939Z,100.000
2017-01-08T04:13:53.195Z,100.000
2017-01-08T04:16:46.605Z,100.000
2017-01-08T04:22:33.629Z,100.000
2017-01-08T04:25:27.290Z,100.000
2017-01-08T04:28:20.659Z,100.000
2017-01-08T04:31:14.184Z,100.000
2017-01-08T04:37:00.232Z,100.000
2017-01-08T04:39:52.809Z,100.000
2017-01-08T04:42:47.863Z,100.000
2017-01-08T04:45:41.332Z,100.000
2017-01-08T04:48:33.283Z,100.000
2017-01-08T04:51:26.837Z,100.000
2017-01-08T04:54:20.234Z,100.000
2017-01-08T04:57:13.762Z,100.000
2017-01-08T05:00:08.849Z,100.000
2017-01-08T05:03:00.818Z,100.000
2017-01-08T05:05:56.024Z,100.000
2017-01-08T05:08:47.655Z,100.000
2017-01-08T05:11:42.940Z,100.000
2017-01-08T05:14:34.722Z,100.000
2017-01-08T05:17:30.939Z,100.000
2017-01-08T05:20:21.711Z,100.000
2017-01-08T05:23:16.836Z,100.000
2017-01-08T05:26:10.444Z,100.000
2017-01-08T05:31:58.280Z,100.000
2017-01-08T05:34:49.611Z,100.000
2017-01-08T05:37:44.901Z,100.000
2017-01-08T05:40:36.583Z,99.963
2017-01-08T05:43:30.076Z,100.000
2017-01-08T05:46:25.440Z,100.000
2017-01-08T05:49:18.892Z,99.846
2017-01-08T05:52:12.381Z,99.847
2017-01-08T05:55:04.369Z,99.755
2017-01-08T05:57:57.795Z,99.855
2017-01-08T06:03:44.855Z,99.794
2017-01-08T06:09:31.827Z,99.945
2017-01-08T06:12:27.178Z,99.765
2017-01-08T06:18:12.455Z,100.000
2017-01-08T06:21:06.816Z,99.944
2017-01-08T06:24:01.070Z,100.000
2017-01-08T06:26:52.787Z,100.000
2017-01-08T06:29:47.901Z,100.000
2017-01-08T06:32:39.603Z,100.000
2017-01-08T06:35:33.116Z,99.940
2017-01-08T06:38:26.607Z,99.877
2017-01-08T06:41:20.121Z,99.827
2017-01-08T06:44:15.329Z,99.613
2017-01-08T06:47:08.733Z,99.507
2017-01-08T06:50:00.519Z,99.248
2017-01-08T06:55:47.340Z,99.509
2017-01-08T06:58:42.618Z,99.625
2017-01-08T07:01:34.255Z,99.601
2017-01-08T07:04:27.727Z,99.825
2017-01-08T07:07:22.812Z,99.500
2017-01-08T07:10:14.600Z,99.686
2017-01-08T07:13:07.986Z,99.822
2017-01-08T07:16:01.331Z,99.556
2017-01-08T07:18:54.823Z,99.983
2017-01-08T07:21:49.122Z,99.801
2017-01-08T07:24:41.686Z,99.791
2017-01-08T07:27:35.094Z,99.811
2017-01-08T07:33:22.029Z,99.842
2017-01-08T07:36:17.556Z,99.927
2017-01-08T07:39:09.178Z,99.603
2017-01-08T07:42:02.662Z,100.000
2017-01-08T07:44:56.936Z,100.000
2017-01-08T07:47:52.278Z,100.000
2017-01-08T07:50:43.475Z,100.000
2017-01-08T07:53:37.257Z,99.863
2017-01-08T07:56:29.723Z,99.935
2017-01-08T08:02:18.426Z,99.831
2017-01-08T08:05:10.288Z,98.937
2017-01-08T08:08:05.445Z,99.344
2017-01-08T08:10:57.822Z,99.275
2017-01-08T08:13:50.536Z,99.332
2017-01-08T08:16:44.908Z,99.459
2017-01-08T08:19:39.134Z,99.492
2017-01-08T08:22:30.845Z,99.733
2017-01-08T08:25:25.221Z,99.509
2017-01-08T08:28:19.266Z,99.581
2017-01-08T08:34:04.466Z,99.554
2017-01-08T08:36:59.636Z,99.278
2017-01-08T08:39:53.168Z,99.302
2017-01-08T08:42:45.657Z,99.338
2017-01-08T08:45:38.198Z,99.344
2017-01-08T08:48:31.599Z,99.397
2017-01-08T08:51:26.733Z,99.312
2017-01-08T08:57:12.096Z,99.236
2017-01-08T09:00:05.697Z,99.243
2017-01-08T09:02:59.015Z,99.014
2017-01-08T09:05:54.135Z,99.172
2017-01-08T09:08:47.614Z,98.370
2017-01-08T09:11:39.348Z,98.725
2017-01-08T09:14:35.464Z,98.472
2017-01-08T09:17:27.954Z,98.409
2017-01-08T09:20:20.230Z,98.009
2017-01-08T09:23:13.875Z,98.043
2017-01-08T09:26:08.182Z,98.120
2017-01-08T09:29:00.942Z,98.304
2017-01-08T09:31:53.287Z,98.379
2017-01-08T09:34:46.572Z,98.743
2017-01-08T09:37:40.033Z,98.590
2017-01-08T09:40:35.248Z,98.333
2017-01-08T09:43:28.472Z,98.526
2017-01-08T09:46:20.261Z,98.056
2017-01-08T09:49:15.350Z,97.923
2017-01-08T09:52:07.089Z,97.784
2017-01-08T09:55:01.052Z,98.195
2017-01-08T09:57:56.355Z,98.594
2017-01-08T10:03:41.524Z,98.230
2017-01-08T10:06:34.898Z,98.051
2017-01-08T10:09:30.054Z,97.507
2017-01-08T10:12:23.401Z,97.218
2017-01-08T10:15:16.831Z,97.816
2017-01-08T10:18:08.724Z,97.965
2017-01-08T10:21:03.806Z,98.222
2017-01-08T10:23:55.532Z,98.217
2017-01-08T10:26:50.575Z,97.912
2017-01-08T10:29:43.966Z,97.693
2017-01-08T10:32:35.686Z,98.009
2017-01-08T10:35:31.939Z,98.059
2017-01-08T10:38:24.607Z,97.928
2017-01-08T10:41:16.259Z,97.947
2017-01-08T10:44:09.830Z,97.930
2017-01-08T10:47:05.128Z,97.961
2017-01-08T10:49:56.685Z,97.954
2017-01-08T10:52:52.806Z,98.023
2017-01-08T10:55:44.600Z,97.944
2017-01-08T10:58:38.870Z,97.103
2017-01-08T11:01:30.624Z,96.531
2017-01-08T11:04:25.747Z,96.603
2017-01-08T11:07:19.286Z,97.229
2017-01-08T11:10:13.272Z,97.783
2017-01-08T11:13:06.597Z,97.172
2017-01-08T11:16:00.160Z,96.257
2017-01-08T11:18:51.811Z,96.422
2017-01-08T11:21:45.094Z,96.772
2017-01-08T11:24:38.505Z,97.174
2017-01-08T11:27:33.570Z,97.193
2017-01-08T11:30:27.110Z,96.811
2017-01-08T11:33:21.027Z,96.416
2017-01-08T11:36:12.481Z,95.713
2017-01-08T11:39:06.614Z,96.205
2017-01-08T11:41:59.249Z,96.498
2017-01-08T11:44:52.587Z,96.465
2017-01-08T11:47:46.027Z,97.175
2017-01-08T11:50:41.111Z,96.943
2017-01-08T11:53:33.422Z,96.141
2017-01-08T11:56:27.756Z,96.455
2017-01-08T11:59:19.633Z,95.993
2017-01-08T12:02:14.677Z,95.568
2017-01-08T12:05:08.093Z,96.224
2017-01-08T12:07:59.718Z,95.270
2017-01-08T12:10:54.847Z,95.656
2017-01-08T12:13:48.319Z,96.151
2017-01-08T12:16:39.894Z,95.397
2017-01-08T12:19:34.910Z,96.080
2017-01-08T12:22:26.714Z,94.041
2017-01-08T12:25:20.121Z,95.389
2017-01-08T12:28:15.365Z,95.950
2017-01-08T12:31:07.050Z,95.598
2017-01-08T12:34:02.289Z,94.747
2017-01-08T12:36:55.732Z,95.358
2017-01-08T12:42:43.647Z,95.297
2017-01-08T12:45:34.976Z,95.305
2017-01-08T12:48:28.634Z,96.186
2017-01-08T12:51:21.754Z,95.791
2017-01-08T12:54:15.321Z,95.621
2017-01-08T13:00:02.934Z,95.997
2017-01-08T13:02:54.697Z,95.390
2017-01-08T13:05:48.120Z,95.054
2017-01-08T13:08:43.126Z,95.343
2017-01-08T13:11:35.549Z,94.448
2017-01-08T13:14:28.942Z,95.292
2017-01-08T13:17:21.590Z,95.623
2017-01-08T13:20:17.632Z,95.434
2017-01-08T13:23:09.923Z,95.378
2017-01-08T13:26:01.782Z,95.665
2017-01-08T13:28:55.253Z,95.010
2017-01-08T13:31:48.628Z,95.354
2017-01-08T13:34:43.672Z,94.469
2017-01-08T13:37:35.295Z,94.766
2017-01-08T13:40:30.386Z,95.032
2017-01-08T13:43:22.174Z,95.548
2017-01-08T13:46:17.472Z,95.295
2017-01-08T13:49:09.106Z,95.896
2017-01-08T13:52:04.221Z,95.228
2017-01-08T13:54:56.892Z,95.387
2017-01-08T13:57:51.032Z,95.496
2017-01-08T14:00:42.760Z,95.657
2017-01-08T14:03:38.089Z,95.301
2017-01-08T14:06:29.647Z,95.681
2017-01-08T14:09:22.943Z,95.393
2017-01-08T14:12:18.096Z,95.160
2017-01-08T14:15:10.761Z,95.198
2017-01-08T14:18:04.952Z,94.923
2017-01-08T14:20:58.088Z,95.718
2017-01-08T14:26:46.293Z,96.072
2017-01-08T14:29:38.178Z,95.323
2017-01-08T14:32:31.570Z,94.353
2017-01-08T14:35:25.067Z,94.873
2017-01-08T14:38:18.345Z,95.086
2017-01-08T14:41:11.702Z,95.023
2017-01-08T14:44:06.804Z,95.155
2017-01-08T14:47:00.214Z,95.129
2017-01-08T14:49:51.980Z,94.784
2017-01-08T14:52:47.986Z,95.597
2017-01-08T14:55:38.740Z,95.400
2017-01-08T14:58:33.107Z,95.869
2017-01-08T15:01:25.497Z,96.015
2017-01-08T15:04:21.547Z,96.233
2017-01-08T15:07:13.102Z,95.743
2017-01-08T15:10:06.649Z,94.946
2017-01-08T15:12:59.061Z,94.941
2017-01-08T15:15:52.457Z,95.596
2017-01-08T15:18:48.542Z,96.005
2017-01-08T15:21:39.156Z,96.231
2017-01-08T15:24:34.302Z,96.403
2017-01-08T15:27:26.046Z,95.763
2017-01-08T15:33:14.679Z,95.602
2017-01-08T15:36:06.250Z,96.214
2017-01-08T15:38:59.580Z,95.480
2017-01-08T15:41:53.046Z,95.377
2017-01-08T15:44:48.318Z,96.246
2017-01-08T15:47:41.602Z,95.884
2017-01-08T15:50:35.122Z,95.884
2017-01-08T15:53:26.716Z,95.925
2017-01-08T15:56:20.208Z,95.292
2017-01-08T15:59:13.638Z,96.266
2017-01-08T16:02:08.766Z,96.014
2017-01-08T16:05:00.560Z,95.941
2017-01-08T16:07:54.094Z,96.531
2017-01-08T16:10:47.468Z,95.517
2017-01-08T16:13:42.622Z,95.997
2017-01-08T16:16:34.336Z,95.781
2017-01-08T16:19:29.626Z,96.451
2017-01-08T16:22:23.081Z,96.720
2017-01-08T16:25:16.456Z,96.782
2017-01-08T16:28:09.956Z,95.997
2017-01-08T16:31:03.417Z,95.923
2017-01-08T16:33:55.102Z,95.967
2017-01-08T16:36:50.206Z,95.945
2017-01-08T16:39:43.569Z,95.509
2017-01-08T16:42:37.043Z,95.937
2017-01-08T16:45:30.448Z,95.985
2017-01-08T16:48:22.648Z,95.367
2017-01-08T16:51:16.158Z,95.401
2017-01-08T16:54:09.585Z,95.657
2017-01-08T16:57:04.682Z,95.903
2017-01-08T16:59:56.481Z,96.086
2017-01-08T17:02:49.838Z,95.880
2017-01-08T17:05:45.199Z,95.435
2017-01-08T17:08:38.946Z,95.706
2017-01-08T17:11:30.753Z,95.946
2017-01-08T17:14:24.849Z,95.674
2017-01-08T17:17:20.066Z,96.187
2017-01-08T17:20:13.006Z,95.836
2017-01-08T17:23:05.491Z,96.151
2017-01-08T17:25:59.035Z,95.730
2017-01-08T17:28:52.673Z,95.978
2017-01-08T17:31:46.055Z,95.783
2017-01-08T17:34:41.165Z,95.911
2017-01-08T17:37:34.581Z,96.027
2017-01-08T17:40:26.442Z,95.384
2017-01-08T17:43:21.500Z,95.931
2017-01-08T17:46:14.738Z,96.019
2017-01-08T17:49:08.148Z,96.300
2017-01-08T17:51:59.930Z,96.485
2017-01-08T17:54:55.931Z,96.424
2017-01-08T17:57:46.684Z,96.659
2017-01-08T18:00:41.424Z,96.356
2017-01-08T18:03:32.894Z,96.527
2017-01-08T18:09:19.045Z,95.879
2017-01-08T18:12:12.056Z,96.404
2017-01-08T18:15:05.120Z,96.401
2017-01-08T18:18:00.079Z,96.133
2017-01-08T18:20:52.243Z,96.180
2017-01-08T18:23:46.092Z,96.027
2017-01-08T18:26:39.115Z,96.750
2017-01-08T18:29:32.134Z,96.627
2017-01-08T18:32:25.369Z,96.129
2017-01-08T18:35:18.336Z,95.715
2017-01-08T18:38:09.726Z,96.331
2017-01-08T18:41:05.441Z,96.432
2017-01-08T18:43:55.886Z,96.426
2017-01-08T18:49:41.931Z,96.450
2017-01-08T18:52:35.849Z,96.726
2017-01-08T18:55:29.763Z,95.876
2017-01-08T18:58:22.883Z,95.401
2017-01-08T19:01:14.103Z,95.864
2017-01-08T19:04:07.126Z,95.919
2017-01-08T19:07:00.184Z,96.189
2017-01-08T19:09:53.063Z,96.220
2017-01-08T19:12:46.014Z,96.320
2017-01-08T19:15:40.675Z,96.408
2017-01-08T19:18:33.612Z,96.516
2017-01-08T19:21:26.528Z,96.964
2017-01-08T19:24:19.445Z,96.969
2017-01-08T19:27:12.355Z,97.080
2017-01-08T19:30:05.527Z,97.183
2017-01-08T19:32:58.358Z,97.514
2017-01-08T19:35:49.793Z,97.290
2017-01-08T19:38:42.687Z,97.155
2017-01-08T19:41:35.813Z,97.217
2017-01-08T19:44:28.972Z,97.107
2017-01-08T19:47:23.952Z,96.797
2017-01-08T19:50:17.166Z,96.938
2017-01-08T19:53:09.151Z,96.932
2017-01-08T19:56:04.065Z,96.448
2017-01-08T19:58:55.476Z,96.592
2017-01-08T20:01:50.406Z,96.624
2017-01-08T20:04:43.496Z,96.789
2017-01-08T20:07:35.533Z,96.632
2017-01-08T20:10:29.623Z,96.744
2017-01-08T20:13:23.344Z,96.760
2017-01-08T20:16:16.471Z,96.078
2017-01-08T20:19:09.510Z,96.282
2017-01-08T20:22:01.150Z,96.541
2017-01-08T20:24:53.984Z,96.589
2017-01-08T20:30:42.799Z,96.801
2017-01-08T20:33:35.095Z,97.031
2017-01-08T20:36:28.035Z,96.553
2017-01-08T20:39:20.302Z,96.838
2017-01-08T20:42:14.122Z,97.334
2017-01-08T20:45:07.175Z,97.441
2017-01-08T20:48:00.161Z,97.482
2017-01-08T20:50:53.204Z,97.688
2017-01-08T20:56:39.614Z,97.714
2017-01-08T20:59:30.919Z,97.787
2017-01-08T21:02:24.951Z,97.749
2017-01-08T21:05:17.136Z,97.738
2017-01-08T21:08:10.785Z,98.051
2017-01-08T21:11:04.866Z,98.028
2017-01-08T21:13:57.977Z,98.162
2017-01-08T21:16:52.124Z,98.206
2017-01-08T21:19:42.501Z,98.291
2017-01-08T21:22:37.241Z,98.159
2017-01-08T21:25:30.269Z,98.017
2017-01-08T21:28:23.289Z,98.096
2017-01-08T21:31:15.399Z,97.921
2017-01-08T21:34:09.364Z,98.073
2017-01-08T21:37:00.641Z,98.016
2017-01-08T21:39:53.528Z,98.250
2017-01-08T21:42:48.167Z,98.023
2017-01-08T21:45:41.042Z,98.065
2017-01-08T21:48:32.275Z,98.337
2017-01-08T21:51:25.146Z,98.163
2017-01-08T21:54:21.022Z,98.058
2017-01-08T21:57:12.192Z,98.155
2017-01-08T22:00:04.063Z,98.286
2017-01-08T22:05:51.734Z,98.114
2017-01-08T22:08:44.627Z,98.378
2017-01-08T22:11:36.107Z,98.248
2017-01-08T22:14:30.729Z,98.228
2017-01-08T22:17:21.952Z,98.393
2017-01-08T22:20:15.419Z,98.339
2017-01-08T22:23:08.364Z,98.250
2017-01-08T22:26:03.114Z,98.266
2017-01-08T22:28:55.856Z,98.155
2017-01-08T22:31:48.896Z,98.399
2017-01-08T22:34:39.992Z,98.540
2017-01-08T22:37:32.780Z,98.778
2017-01-08T22:40:25.661Z,99.125
2017-01-08T22:43:20.265Z,99.043
2017-01-08T22:49:04.207Z,98.814
2017-01-08T22:51:57.058Z,98.566
2017-01-08T22:54:51.717Z,98.682
2017-01-08T22:57:43.474Z,98.597
2017-01-08T23:00:35.577Z,98.638
2017-01-08T23:06:23.055Z,98.810
2017-01-08T23:09:16.001Z,98.749
2017-01-08T23:12:08.883Z,98.497
2017-01-08T23:15:01.676Z,98.703
2017-01-08T23:20:47.661Z,98.303
2017-01-08T23:23:38.847Z,98.489
2017-01-08T23:26:33.467Z,98.685
2017-01-08T23:29:26.229Z,98.341
2017-01-08T23:32:17.436Z,98.545
2017-01-08T23:35:12.026Z,98.402
2017-01-08T23:38:04.848Z,98.748
2017-01-08T23:40:56.116Z,98.584
2017-01-08T23:43:48.901Z,98.705
2017-01-08T23:46:41.807Z,98.780
2017-01-08T23:49:36.278Z,98.784
2017-01-08T23:52:29.182Z,98.919
2017-01-08T23:55:20.197Z,98.926
2017-01-08T23:58:14.773Z,98.648
